Flugplatz Paderborn Lippstadt Airport

Bericht für EDLP

vom 15.07. um 05:50 UTC

Wind 4 kt aus 170°

Sichtweite 9700 m

gute Sicht, keine Wolken < 5000 ft, keine CB, keine Wettererscheinungen (CAVOK)

Temperatur 16°C

Taupunkt 12°C

Luftfeuchtigkeit 77%

Luftdruck 1014 hPa

EDLP 150550Z 17004KT CAVOK 16/12 Q1014

Prognose für EDLP

vom 15.07. um 05:00 UTC

Zwischen 06:00 UTC und 10:00 UTC

Wind 3 kt aus VRB°

Sichtweite 9700 m

keine signifikanten Wettererscheinungen

keine Wolken


Zwischen 10:00 und 12:00 UTC übergehend zu

Wind 5 kt aus 140°

Sichtweite 9700 m

keine signifikanten Wettererscheinungen

keine Wolken


Zwischen 21:00 UTC und 00:00 UTC zeitweise

Regenschauer

aufgebrochene Bewölkung in 3000 ft


Zwischen 21:00 UTC und 00:00 UTC zeitweise mit einer Wahrscheinlichkeit von 30%

Sichtweite 3000 m

Code: TSRA

aufgebrochene Bewölkung in 2000 ft


Zwischen 23:00 und 02:00 UTC übergehend zu

Wind 8 kt aus 200°

Sichtweite 9700 m

keine signifikanten Wettererscheinungen

keine Wolken

TAF EDLP 150500Z 1506/1606 VRB03KT CAVOK BECMG 1510/1512 14005KT TEMPO 1521/1524 SHRA BKN030CB PROB30 TEMPO 1521/1524 3000 TSRA BKN020CB BECMG 1523/1602 20008KT
Impressum